createdAt,value
2016-05-08T00:00:28.869Z,44.51
2016-05-08T00:01:28.856Z,44.51
2016-05-08T00:02:28.859Z,44.6
2016-05-08T00:03:28.862Z,44.79
2016-05-08T00:04:28.693Z,44.79
2016-05-08T00:05:28.851Z,44.98
2016-05-08T00:06:28.854Z,45.15
2016-05-08T00:07:28.841Z,44.96
2016-05-08T00:08:28.843Z,44.98
2016-05-08T00:09:28.846Z,45.06
2016-05-08T00:10:28.690Z,45.06
2016-05-08T00:11:28.834Z,45.46
2016-05-08T00:12:29.289Z,45.43
2016-05-08T00:13:28.839Z,45.82
2016-05-08T00:14:28.826Z,45.53
2016-05-08T00:15:28.828Z,45.82
2016-05-08T00:16:28.831Z,45.63
2016-05-08T00:17:28.818Z,45.82
2016-05-08T00:18:28.821Z,46.2
2016-05-08T00:19:28.667Z,46.01
2016-05-08T00:20:28.811Z,46.11
2016-05-08T00:21:28.813Z,46.48
2016-05-08T00:22:28.816Z,46.48
2016-05-08T00:23:28.679Z,46.3
2016-05-08T00:24:28.813Z,46.48
2016-05-08T00:25:28.660Z,46.87
2016-05-08T00:26:28.802Z,46.39
2016-05-08T00:27:29.087Z,46.48
2016-05-08T00:28:28.792Z,46.58
2016-05-08T00:29:30.265Z,46.77
2016-05-08T00:30:28.642Z,46.97
2016-05-08T00:31:28.785Z,46.84
2016-05-08T00:32:28.788Z,47.23
2016-05-08T00:33:28.790Z,47.32
2016-05-08T00:34:28.792Z,47.06
2016-05-08T00:35:28.780Z,46.94
2016-05-08T00:36:28.783Z,47.16
2016-05-08T00:37:28.786Z,47.32
2016-05-08T00:38:28.773Z,47.52
2016-05-08T00:39:28.775Z,47.54
2016-05-08T00:40:29.747Z,47.54
2016-05-08T00:41:28.764Z,47.63
2016-05-08T00:42:28.799Z,47.61
2016-05-08T00:43:29.036Z,47.52
2016-05-08T00:44:28.758Z,47.89
2016-05-08T00:45:28.744Z,47.71
2016-05-08T00:46:28.591Z,47.71
2016-05-08T00:47:28.750Z,47.99
2016-05-08T00:48:28.581Z,47.8
2016-05-08T00:49:28.583Z,48.18
2016-05-08T00:50:28.742Z,48.08
2016-05-08T00:51:28.573Z,48.08
2016-05-08T00:52:28.747Z,48.37
2016-05-08T00:53:28.781Z,48.94
2016-05-08T00:54:28.738Z,48.85
2016-05-08T00:55:28.787Z,48.75
2016-05-08T00:56:28.899Z,48.94
2016-05-08T00:57:28.729Z,48.75
2016-05-08T00:58:29.326Z,49.23
2016-05-08T00:59:28.719Z,49.52
2016-05-08T01:00:28.769Z,49.23
2016-05-08T01:01:28.710Z,49.23
2016-05-08T01:02:28.712Z,49.71
2016-05-08T01:03:28.698Z,49.8
2016-05-08T01:04:28.702Z,49.62
2016-05-08T01:05:29.361Z,50.09
2016-05-08T01:06:28.692Z,50.07
2016-05-08T01:07:28.695Z,49.87
2016-05-08T01:08:28.744Z,50.07
2016-05-08T01:09:28.683Z,50.63
2016-05-08T01:10:28.686Z,50.54
2016-05-08T01:11:28.689Z,50.76
2016-05-08T01:12:28.676Z,50.85
2016-05-08T01:13:28.679Z,50.76
2016-05-08T01:14:28.666Z,50.47
2016-05-08T01:15:28.669Z,50.95
2016-05-08T01:16:28.672Z,51.04
2016-05-08T01:17:28.675Z,50.67
2016-05-08T01:18:28.661Z,50.67
2016-05-08T01:19:28.664Z,50.54
2016-05-08T01:20:28.666Z,50.83
2016-05-08T01:21:28.654Z,50.83
2016-05-08T01:22:28.485Z,50.83
2016-05-08T01:23:28.644Z,50.92
2016-05-08T01:24:28.646Z,50.92
2016-05-08T01:25:28.634Z,51.12
2016-05-08T01:26:28.636Z,51.12
2016-05-08T01:27:28.639Z,51.31
2016-05-08T01:28:28.641Z,51.78
2016-05-08T01:29:28.630Z,51.68
2016-05-08T01:30:28.632Z,51.97
2016-05-08T01:31:28.619Z,51.97
2016-05-08T01:32:28.621Z,51.97
2016-05-08T01:33:28.453Z,51.78
2016-05-08T01:34:28.611Z,51.88
2016-05-08T01:35:28.630Z,52.07
2016-05-08T01:36:28.601Z,52.55
2016-05-08T01:37:28.604Z,52.73
2016-05-08T01:38:28.606Z,52.73
2016-05-08T01:39:28.610Z,52.26
2016-05-08T01:40:28.596Z,52.55
2016-05-08T01:41:28.599Z,52.92
2016-05-08T01:42:28.523Z,53.02
2016-05-08T01:43:28.589Z,53.28
2016-05-08T01:44:28.592Z,53.31
2016-05-08T01:45:28.423Z,53.09
2016-05-08T01:46:28.565Z,53.19
2016-05-08T01:47:30.193Z,53.66
2016-05-08T01:48:28.571Z,53.47
2016-05-08T01:49:28.558Z,53.28
2016-05-08T01:50:28.561Z,53.66
2016-05-08T01:51:28.548Z,53.76
2016-05-08T01:52:28.784Z,54.14
2016-05-08T01:53:28.553Z,54.14
2016-05-08T01:54:28.400Z,54.14
2016-05-08T01:55:28.543Z,54.43
2016-05-08T01:56:30.420Z,55.09
2016-05-08T01:57:29.923Z,54.9
2016-05-08T01:58:28.644Z,55
2016-05-08T01:59:29.100Z,54.8
2016-05-08T02:00:28.869Z,54.9
2016-05-08T02:01:28.638Z,54.9
2016-05-08T02:02:28.953Z,55.09
2016-05-08T02:03:28.518Z,55.38
2016-05-08T02:04:28.520Z,55.07
2016-05-08T02:05:28.507Z,55.26
2016-05-08T02:06:28.510Z,55.44
2016-05-08T02:07:28.497Z,55.44
2016-05-08T02:08:28.500Z,55.44
2016-05-08T02:09:28.502Z,55.92
2016-05-08T02:10:28.489Z,55.73
2016-05-08T02:11:28.493Z,56.49
2016-05-08T02:12:28.339Z,56.4
2016-05-08T02:14:38.565Z,55.92
2016-05-08T02:15:38.756Z,56.4
2016-05-08T02:16:39.117Z,56.78
2016-05-08T02:17:38.559Z,57.35
2016-05-08T02:18:38.654Z,56.78
2016-05-08T02:19:38.548Z,56.78
2016-05-08T02:20:38.550Z,57.26
2016-05-08T02:21:52.725Z,57.45
2016-05-08T02:23:39.090Z,57.16
2016-05-08T02:24:38.530Z,57.42
2016-05-08T02:26:38.519Z,57.6
2016-05-08T02:27:38.522Z,58.08
2016-05-08T02:28:38.416Z,58.28
2016-05-08T02:29:38.512Z,58.47
2016-05-08T02:30:38.499Z,58.75
2016-05-08T02:31:38.502Z,58.56
2016-05-08T02:32:38.505Z,58.75
2016-05-08T02:33:38.335Z,58.75
2016-05-08T02:34:38.494Z,58.84
2016-05-08T02:35:38.482Z,59.42
2016-05-08T02:36:38.484Z,59.03
2016-05-08T02:37:38.487Z,59.03
2016-05-08T02:38:38.474Z,58.94
2016-05-08T02:39:38.476Z,59.13
2016-05-08T02:40:38.323Z,58.56
2016-05-08T02:41:38.499Z,59.23
2016-05-08T02:42:38.751Z,59.03
2016-05-08T02:43:38.583Z,59.32
2016-05-08T02:44:38.618Z,59.23
2016-05-08T02:45:38.668Z,59.42
2016-05-08T02:46:38.542Z,59.03
2016-05-08T02:47:38.703Z,59.51
2016-05-08T02:48:38.722Z,59.7
2016-05-08T02:49:38.727Z,59.61
2016-05-08T02:50:38.747Z,59.89
2016-05-08T02:51:38.743Z,60.08
2016-05-08T02:52:38.752Z,60.27
2016-05-08T02:53:38.747Z,60.18
2016-05-08T02:54:38.755Z,60.18
2016-05-08T02:55:38.606Z,60.85
2016-05-08T02:56:38.754Z,60.85
2016-05-08T02:57:38.603Z,60.66
2016-05-08T02:58:38.748Z,60.66
2016-05-08T02:59:38.753Z,60.75
2016-05-08T03:00:38.758Z,60.75
2016-05-08T03:01:38.747Z,60.66
2016-05-08T03:02:38.750Z,60.37
2016-05-08T03:03:38.737Z,60.75
2016-05-08T03:04:38.585Z,61.22
2016-05-08T03:06:38.732Z,61.32
2016-05-08T03:07:40.032Z,60.94
2016-05-08T03:08:39.035Z,61.32
2016-05-08T03:09:39.445Z,61.42
2016-05-08T03:10:39.182Z,61.61
2016-05-08T03:11:38.716Z,61.42
2016-05-08T03:12:38.719Z,61.61
2016-05-08T03:13:38.549Z,61.42
2016-05-08T03:14:40.130Z,61.8
2016-05-08T03:15:38.711Z,61.8
2016-05-08T03:16:39.543Z,61.61
2016-05-08T03:17:39.545Z,61.8
2016-05-08T03:18:39.110Z,61.7
2016-05-08T03:19:38.675Z,61.51
2016-05-08T03:20:38.679Z,61.51
2016-05-08T03:21:38.665Z,61.7
2016-05-08T03:22:38.652Z,61.7
2016-05-08T03:23:38.654Z,61.9
2016-05-08T03:24:38.657Z,61.99
2016-05-08T03:25:38.644Z,61.8
2016-05-08T03:26:38.648Z,61.9
2016-05-08T03:27:38.650Z,61.8
2016-05-08T03:28:38.637Z,61.9
2016-05-08T03:29:38.624Z,61.99
2016-05-08T03:31:39.722Z,62.08
2016-05-08T03:32:39.476Z,62.27
2016-05-08T03:33:38.463Z,62.37
2016-05-08T03:34:38.762Z,62.27
2016-05-08T03:35:38.656Z,62.27
2016-05-08T03:36:38.439Z,62.56
2016-05-08T03:37:38.896Z,62.37
2016-05-08T03:38:38.585Z,62.27
2016-05-08T03:39:38.588Z,62.27
2016-05-08T03:40:52.763Z,62.46
2016-05-08T03:41:38.577Z,62.56
2016-05-08T03:42:38.644Z,62.37
2016-05-08T03:43:38.568Z,62.46
2016-05-08T03:44:38.868Z,62.46
2016-05-08T03:45:38.760Z,62.37
2016-05-08T03:46:38.560Z,62.18
2016-05-08T03:47:38.563Z,62.37
2016-05-08T03:48:38.551Z,62.27
2016-05-08T03:49:38.396Z,61.51
2016-05-08T03:50:38.384Z,61.8
2016-05-08T03:51:38.542Z,61.9
2016-05-08T03:52:38.529Z,61.7
2016-05-08T03:53:38.532Z,61.61
2016-05-08T03:54:38.535Z,61.9
2016-05-08T03:55:38.522Z,61.8
2016-05-08T03:56:38.525Z,61.8
2016-05-08T03:57:39.418Z,61.7
2016-05-08T03:58:38.514Z,61.9
2016-05-08T03:59:38.501Z,61.8
2016-05-08T04:00:38.504Z,61.93
2016-05-08T04:01:38.507Z,61.45
2016-05-08T04:02:38.494Z,61.35
2016-05-08T04:03:38.481Z,61.25
2016-05-08T04:04:38.483Z,61.16
2016-05-08T04:05:38.486Z,60.72
2016-05-08T04:06:38.474Z,60.81
2016-05-08T04:07:38.477Z,59.67
2016-05-08T04:08:38.479Z,59.41
2016-05-08T04:09:38.466Z,59.03
2016-05-08T04:10:38.469Z,58.94
2016-05-08T04:11:38.456Z,58.11
2016-05-08T04:12:38.661Z,57.53
2016-05-08T04:13:38.461Z,56.77
2016-05-08T04:14:38.463Z,56.6
2016-05-08T04:15:38.451Z,56.13
2016-05-08T04:16:38.454Z,55.46
2016-05-08T04:17:38.441Z,54.91
2016-05-08T04:18:38.537Z,54.63
2016-05-08T04:19:38.290Z,53.61
2016-05-08T04:20:38.293Z,53.13
2016-05-08T04:21:38.436Z,52.58
2016-05-08T04:22:38.438Z,52.01
2016-05-08T04:23:38.284Z,51.84
2016-05-08T04:24:39.209Z,51.07
2016-05-08T04:25:38.540Z,50.34
2016-05-08T04:26:39.809Z,49.98
2016-05-08T04:27:38.437Z,49.02
2016-05-08T04:28:38.439Z,48.28
2016-05-08T04:29:39.019Z,47.8
2016-05-08T04:30:38.444Z,47.34
2016-05-08T04:31:38.432Z,46.58
2016-05-08T04:32:38.465Z,45.83
2016-05-08T04:33:38.452Z,45.18
2016-05-08T04:34:39.361Z,44.63
2016-05-08T04:35:39.301Z,43.87
2016-05-08T04:36:38.726Z,43.31
2016-05-08T04:37:38.445Z,42.54
2016-05-08T04:38:38.463Z,41.79
2016-05-08T04:39:38.466Z,40.66
2016-05-08T04:40:38.468Z,40.28
2016-05-08T04:41:38.456Z,39.89
2016-05-08T04:42:38.570Z,39.14
2016-05-08T04:43:38.460Z,39.14
2016-05-08T04:44:38.463Z,38.76
2016-05-08T04:45:38.467Z,38.01
2016-05-08T04:46:38.484Z,37.62
2016-05-08T04:47:38.488Z,37.26
2016-05-08T04:48:38.490Z,37.26
2016-05-08T04:50:38.745Z,35.73
2016-05-08T04:51:38.907Z,35.83
2016-05-08T04:52:38.501Z,35.73
2016-05-08T04:53:38.504Z,35.06
2016-05-08T04:54:38.506Z,34.88
2016-05-08T04:55:38.524Z,34.59
2016-05-08T04:56:38.573Z,33.84
2016-05-08T04:57:38.530Z,32.97
2016-05-08T04:58:38.548Z,32.78
2016-05-08T04:59:39.256Z,32.87
2016-05-08T05:00:39.009Z,32.49
2016-05-08T05:01:38.556Z,31.63
2016-05-08T05:02:39.125Z,31.54
2016-05-08T05:03:38.578Z,31.45
2016-05-08T05:04:39.239Z,30.96
2016-05-08T05:05:38.442Z,30.98
2016-05-08T05:06:38.444Z,30.61
2016-05-08T05:07:38.619Z,29.93
2016-05-08T05:08:38.622Z,29.66
2016-05-08T05:09:38.641Z,28.98
2016-05-08T05:10:38.658Z,29.09
2016-05-08T05:11:38.646Z,27.64
2016-05-08T05:12:38.695Z,27.73
2016-05-08T05:13:38.666Z,27.93
2016-05-08T05:14:38.669Z,27.92
2016-05-08T05:15:38.532Z,27.53
2016-05-08T05:16:38.690Z,27.72
2016-05-08T05:17:38.693Z,27.45
2016-05-08T05:18:38.711Z,27.45
2016-05-08T05:19:38.729Z,26.68
2016-05-08T05:20:38.732Z,26.61
2016-05-08T05:21:38.751Z,26.42
2016-05-08T05:22:38.597Z,26.04
2016-05-08T05:23:38.771Z,25.95
2016-05-08T05:24:38.774Z,24.99
2016-05-08T05:25:41.796Z,25.01
2016-05-08T05:26:38.796Z,24.33
2016-05-08T05:27:38.798Z,24.63
2016-05-08T05:28:38.660Z,24.34
2016-05-08T05:29:38.662Z,24.34
2016-05-08T05:30:38.681Z,24.16
2016-05-08T05:31:38.840Z,23.77
2016-05-08T05:32:38.859Z,23.28
2016-05-08T05:33:38.861Z,23.28
2016-05-08T05:34:38.879Z,23.2
2016-05-08T05:35:38.742Z,22.53
2016-05-08T05:36:38.901Z,22.34
2016-05-08T05:37:38.747Z,21.37
2016-05-08T05:38:38.780Z,21.57
2016-05-08T05:39:38.939Z,21.27
2016-05-08T05:40:38.958Z,21.47
2016-05-08T05:41:38.805Z,21.26
2016-05-08T05:42:41.310Z,21.06
2016-05-08T05:43:40.280Z,21.15
2016-05-08T05:44:38.999Z,21.25
2016-05-08T05:45:39.471Z,21.15
2016-05-08T05:46:39.037Z,21.55
2016-05-08T05:47:39.039Z,21.26
2016-05-08T05:48:39.042Z,21.65
2016-05-08T05:49:39.060Z,21.06
2016-05-08T05:50:39.079Z,21.06
2016-05-08T05:51:38.924Z,20.97
2016-05-08T05:52:40.116Z,20.77
2016-05-08T05:53:40.293Z,20.97
2016-05-08T05:54:39.355Z,21.06
2016-05-08T05:55:39.139Z,21.65
2016-05-08T05:56:39.157Z,21.54
2016-05-08T05:57:40.081Z,21.25
2016-05-08T05:58:39.178Z,21.36
2016-05-08T05:59:39.181Z,20.77
2016-05-08T06:00:39.199Z,20.67
2016-05-08T06:01:39.217Z,20.86
2016-05-08T06:02:39.220Z,21.05
2016-05-08T06:03:39.239Z,21.15
2016-05-08T06:04:39.242Z,21.44
2016-05-08T06:05:39.260Z,20.76
2016-05-08T06:06:39.278Z,20.47
2016-05-08T06:07:39.280Z,20.47
2016-05-08T06:08:39.299Z,20.47
2016-05-08T06:09:40.317Z,20.19
2016-05-08T06:10:54.354Z,20.49
2016-05-08T06:11:40.433Z,20.3
2016-05-08T06:12:39.763Z,19.82
2016-05-08T06:13:39.359Z,19.62
2016-05-08T06:14:39.378Z,20.1
2016-05-08T06:15:39.489Z,20.3
2016-05-08T06:16:39.242Z,20.2
2016-05-08T06:17:41.029Z,20.2
2016-05-08T06:19:40.391Z,20.21
2016-05-08T06:20:39.300Z,20.01
2016-05-08T06:21:39.334Z,19.73
2016-05-08T06:22:39.337Z,19.92
2016-05-08T06:23:39.854Z,19.53
2016-05-08T06:24:39.513Z,19.63
2016-05-08T06:25:39.532Z,19.63
2016-05-08T06:26:39.550Z,19.53
2016-05-08T06:27:39.397Z,19.43
2016-05-08T06:28:39.571Z,19.14
2016-05-08T06:29:39.590Z,19.35
2016-05-08T06:30:39.592Z,19.35
2016-05-08T06:31:39.611Z,19.15
2016-05-08T06:32:39.629Z,18.87
2016-05-08T06:33:39.647Z,18.77
2016-05-08T06:34:39.665Z,18.19
2016-05-08T06:35:39.668Z,18.29
2016-05-08T06:36:39.687Z,18.29
2016-05-08T06:37:39.705Z,17.9
2016-05-08T06:38:39.723Z,17.9
2016-05-08T06:39:39.741Z,17.7
2016-05-08T06:40:39.760Z,17.8
2016-05-08T06:41:39.763Z,17.7
2016-05-08T06:42:39.781Z,17.8
2016-05-08T06:43:39.800Z,17.62
2016-05-08T06:44:39.661Z,17.34
2016-05-08T06:45:39.836Z,17.23
2016-05-08T06:46:39.855Z,17.63
2016-05-08T06:47:39.857Z,17.44
2016-05-08T06:48:39.875Z,17.34
2016-05-08T06:49:39.894Z,16.95
2016-05-08T06:50:39.912Z,17.35
2016-05-08T06:51:39.930Z,17.15
2016-05-08T06:52:39.949Z,16.86
2016-05-08T06:53:39.967Z,16.96
2016-05-08T06:54:39.969Z,17.54
2016-05-08T06:55:39.988Z,17.83
2016-05-08T06:56:40.021Z,18.23
2016-05-08T06:57:40.024Z,16.96
2016-05-08T06:58:40.042Z,17.63
2016-05-08T06:59:40.061Z,17.72
2016-05-08T07:00:40.079Z,17.53
2016-05-08T07:01:40.567Z,17.53
2016-05-08T07:03:39.978Z,16.76
2016-05-08T07:04:40.137Z,16.66
2016-05-08T07:05:40.828Z,16.56
2016-05-08T07:06:40.173Z,16.37
2016-05-08T07:07:40.192Z,16.66
2016-05-08T07:08:40.225Z,16.36
2016-05-08T07:09:40.228Z,16.75
2016-05-08T07:10:41.028Z,16.66
2016-05-08T07:12:41.517Z,15.8
2016-05-08T07:13:40.302Z,15.21
2016-05-08T07:14:40.320Z,15.4
2016-05-08T07:15:40.339Z,15.69
2016-05-08T07:16:40.732Z,15.78
2016-05-08T07:17:40.375Z,15.59
2016-05-08T07:18:40.393Z,15.69
2016-05-08T07:19:40.255Z,15.4
2016-05-08T07:20:40.430Z,15.99
2016-05-08T07:21:40.448Z,15.89
2016-05-08T07:22:40.467Z,15.61
2016-05-08T07:23:40.485Z,15.7
2016-05-08T07:24:40.504Z,15.51
2016-05-08T07:25:40.366Z,16.49
2016-05-08T07:26:40.540Z,16.28
2016-05-08T07:27:40.558Z,15.6
2016-05-08T07:28:40.577Z,15.6
2016-05-08T07:29:40.595Z,15.98
2016-05-08T07:30:40.612Z,15.58
2016-05-08T07:31:40.632Z,15.39
2016-05-08T07:32:40.650Z,15.88
2016-05-08T07:33:40.496Z,15.5
2016-05-08T07:34:40.687Z,16.08
2016-05-08T07:35:40.548Z,15.68
2016-05-08T07:36:40.723Z,15.78
2016-05-08T07:37:40.726Z,15.78
2016-05-08T07:38:40.745Z,15.19
2016-05-08T07:39:40.778Z,15.11
2016-05-08T07:40:40.796Z,15.48
2016-05-08T07:41:40.815Z,15.58
2016-05-08T07:42:40.817Z,15.58
2016-05-08T07:43:40.836Z,15.3
2016-05-08T07:44:40.853Z,15.78
2016-05-08T07:45:40.872Z,15.68
2016-05-08T07:46:40.906Z,15.29
2016-05-08T07:47:40.909Z,15.29
2016-05-08T07:48:40.927Z,15.39
2016-05-08T07:49:40.945Z,15.68
2016-05-08T07:50:40.979Z,15.58
2016-05-08T07:51:40.982Z,15.48
2016-05-08T07:52:40.844Z,16.36
2016-05-08T07:53:41.019Z,16.74
2016-05-08T07:54:41.037Z,17.03
2016-05-08T07:55:41.055Z,16.26
2016-05-08T07:56:41.074Z,16.64
2016-05-08T07:57:41.388Z,16.25
2016-05-08T07:58:41.110Z,15.96
2016-05-08T07:59:41.129Z,16.36
2016-05-08T08:00:41.146Z,15.97
2016-05-08T08:01:41.181Z,15.58
2016-05-08T08:02:41.199Z,15.38
2016-05-08T08:03:41.201Z,15.58
2016-05-08T08:04:41.220Z,16.74
2016-05-08T08:05:41.239Z,16.35
2016-05-08T08:06:41.101Z,16.25
2016-05-08T08:07:41.119Z,16.25
2016-05-08T08:08:41.293Z,16.14
2016-05-08T08:09:41.312Z,16.24
2016-05-08T08:10:41.330Z,16.24
2016-05-08T08:11:41.364Z,16.53
2016-05-08T08:12:41.367Z,16.43
2016-05-08T08:13:41.385Z,17.4
2016-05-08T08:14:41.419Z,17.79
2016-05-08T08:15:41.422Z,17.6
2016-05-08T08:16:41.456Z,16.43
2016-05-08T08:17:41.474Z,16.71
2016-05-08T08:18:41.492Z,16.52
2016-05-08T08:19:41.495Z,17
2016-05-08T08:20:42.513Z,17.3
2016-05-08T08:21:43.094Z,17.2
2016-05-08T08:22:42.722Z,17.3
2016-05-08T08:23:41.599Z,17.68
2016-05-08T08:24:42.274Z,17.88
2016-05-08T08:25:41.605Z,17.6
2016-05-08T08:26:41.623Z,17.6
2016-05-08T08:27:41.860Z,17.11
2016-05-08T08:28:42.316Z,17.4
2016-05-08T08:29:42.100Z,16.71
2016-05-08T08:30:41.743Z,16.71
2016-05-08T08:31:42.527Z,17.58
2016-05-08T08:32:42.905Z,18.25
2016-05-08T08:33:42.173Z,18.24
2016-05-08T08:34:41.754Z,18.62
2016-05-08T08:35:41.615Z,18.8
2016-05-08T08:36:42.118Z,19.19
2016-05-08T08:37:41.653Z,19.38
2016-05-08T08:38:42.312Z,19.66
2016-05-08T08:39:56.004Z,20.62
2016-05-08T08:40:41.989Z,20.62
2016-05-08T08:41:41.695Z,21
2016-05-08T08:42:41.745Z,21.38
2016-05-08T08:43:41.981Z,22.16
2016-05-08T08:44:41.889Z,21.85
2016-05-08T08:45:41.908Z,22.33
2016-05-08T08:46:41.927Z,23.1
2016-05-08T08:47:41.773Z,23.18
2016-05-08T08:48:41.947Z,23.96
2016-05-08T08:49:41.966Z,24.23
2016-05-08T08:50:41.969Z,24.33
2016-05-08T08:51:41.972Z,24.81
2016-05-08T08:52:41.990Z,24.8
2016-05-08T08:53:41.993Z,25.19
2016-05-08T08:54:42.010Z,25.48
2016-05-08T08:55:42.013Z,25.56
2016-05-08T08:56:42.032Z,25.85
2016-05-08T08:57:42.034Z,26.14
2016-05-08T08:58:42.038Z,26.43
2016-05-08T08:59:42.055Z,26.51
2016-05-08T09:00:42.058Z,27.38
2016-05-08T09:01:42.061Z,27.57
2016-05-08T09:02:42.079Z,27.57
2016-05-08T09:03:42.082Z,27.28
2016-05-08T09:04:42.084Z,27.48
2016-05-08T09:05:42.087Z,27.48
2016-05-08T09:06:42.090Z,27.57
2016-05-08T09:07:42.108Z,27.86
2016-05-08T09:08:42.112Z,27.96
2016-05-08T09:09:42.129Z,27.76
2016-05-08T09:10:42.131Z,27.76
2016-05-08T09:11:42.135Z,27.57
2016-05-08T09:12:42.137Z,27.67
2016-05-08T09:13:42.140Z,27.57
2016-05-08T09:14:42.142Z,27.86
2016-05-08T09:15:42.145Z,27.96
2016-05-08T09:16:42.164Z,28.33
2016-05-08T09:17:42.166Z,28.33
2016-05-08T09:18:42.169Z,28.72
2016-05-08T09:19:42.171Z,28.14
2016-05-08T09:20:42.019Z,28.42
2016-05-08T09:21:42.178Z,28.33
2016-05-08T09:22:42.180Z,28.91
2016-05-08T09:23:42.183Z,29.1
2016-05-08T09:24:42.201Z,28.91
2016-05-08T09:25:42.188Z,29.39
2016-05-08T09:26:42.207Z,28.91
2016-05-08T09:27:42.209Z,29.2
2016-05-08T09:28:42.212Z,29.02
2016-05-08T09:29:42.230Z,28.92
2016-05-08T09:30:42.218Z,28.34
2016-05-08T09:31:42.079Z,28.44
2016-05-08T09:32:42.238Z,28.53
2016-05-08T09:33:42.240Z,27.86
2016-05-08T09:34:42.229Z,27.57
2016-05-08T09:35:42.246Z,27.67
2016-05-08T09:36:42.248Z,27.76
2016-05-08T09:37:42.251Z,27.86
2016-05-08T09:38:42.254Z,27.76
2016-05-08T09:39:42.101Z,27.48
2016-05-08T09:40:42.259Z,27.86
2016-05-08T09:41:43.543Z,27.86
2016-05-08T09:42:42.406Z,27.67
2016-05-08T09:43:42.298Z,27.59
2016-05-08T09:44:42.286Z,27.49
2016-05-08T09:45:42.741Z,27.28
2016-05-08T09:46:42.291Z,27.59
2016-05-08T09:48:42.906Z,27.97
2016-05-08T09:49:43.519Z,27.97
2016-05-08T09:50:43.583Z,27.49
2016-05-08T09:51:43.008Z,27.68
2016-05-08T09:52:42.323Z,27.6
2016-05-08T09:53:42.357Z,27.4
2016-05-08T09:54:42.328Z,27.12
2016-05-08T09:55:42.330Z,26.92
2016-05-08T09:56:43.053Z,26.44
2016-05-08T09:57:42.993Z,26.44
2016-05-08T09:58:42.902Z,26.34
2016-05-08T09:59:42.358Z,26.45
2016-05-08T10:00:42.360Z,26.65
2016-05-08T10:01:42.363Z,26.75
2016-05-08T10:02:42.365Z,26.45
2016-05-08T10:03:42.477Z,26.45
2016-05-08T10:04:42.387Z,26.45
2016-05-08T10:05:42.233Z,26.26
2016-05-08T10:06:42.392Z,26.07
2016-05-08T10:07:42.395Z,25.97
2016-05-08T10:08:42.398Z,25.39
2016-05-08T10:09:42.400Z,25.59
2016-05-08T10:10:42.418Z,25.87
2016-05-08T10:11:42.420Z,25.39
2016-05-08T10:12:42.470Z,24.91
2016-05-08T10:13:42.443Z,24.91
2016-05-08T10:14:42.428Z,25.2
2016-05-08T10:15:42.448Z,25.1
2016-05-08T10:16:42.434Z,25.2
2016-05-08T10:17:42.453Z,25.87
2016-05-08T10:18:42.456Z,25.39
2016-05-08T10:19:42.458Z,25.01
2016-05-08T10:20:42.461Z,24.91
2016-05-08T10:21:42.480Z,24.81
2016-05-08T10:22:42.482Z,24.62
2016-05-08T10:23:42.480Z,24.91
2016-05-08T10:24:42.483Z,24.81
2016-05-08T10:25:42.486Z,25.1
2016-05-08T10:26:42.488Z,25.01
2016-05-08T10:27:42.366Z,24.52
2016-05-08T10:28:42.508Z,25.1
2016-05-08T10:29:42.527Z,24.72
2016-05-08T10:30:42.514Z,24.63
2016-05-08T10:31:42.517Z,24.63
2016-05-08T10:32:42.535Z,24.54
2016-05-08T10:33:42.538Z,25.21
2016-05-08T10:34:42.791Z,24.63
2016-05-08T10:35:42.543Z,24.82
2016-05-08T10:36:42.562Z,24.54
2016-05-08T10:37:42.564Z,24.54
2016-05-08T10:38:42.567Z,24.55
2016-05-08T10:39:42.570Z,24.26
2016-05-08T10:40:42.572Z,23.97
2016-05-08T10:41:42.418Z,23.58
2016-05-08T10:42:42.859Z,23.87
2016-05-08T10:43:42.956Z,23.19
2016-05-08T10:44:42.598Z,23.97
2016-05-08T10:45:42.601Z,23.68
2016-05-08T10:46:42.604Z,23.58
2016-05-08T10:47:42.467Z,23.87
2016-05-08T10:48:42.625Z,23.77
2016-05-08T10:49:42.643Z,24.07
2016-05-08T10:50:42.631Z,23.87
2016-05-08T10:51:42.634Z,23.88
2016-05-08T10:52:42.651Z,23.3
2016-05-08T10:53:42.654Z,23.5
2016-05-08T10:54:42.656Z,23.01
2016-05-08T10:55:42.659Z,23.4
2016-05-08T10:56:42.662Z,23.4
2016-05-08T10:57:43.447Z,23.4
2016-05-08T10:59:43.327Z,23.21
2016-05-08T11:00:44.002Z,23.3
2016-05-08T11:01:42.707Z,22.82
2016-05-08T11:02:42.710Z,22.63
2016-05-08T11:03:42.712Z,22.05
2016-05-08T11:04:57.529Z,22.14
2016-05-08T11:06:43.188Z,21.67
2016-05-08T11:08:42.741Z,22.25
2016-05-08T11:09:42.743Z,22.16
2016-05-08T11:10:43.528Z,22.06
2016-05-08T11:11:42.765Z,21.67
2016-05-08T11:12:42.768Z,21.77
2016-05-08T11:13:42.942Z,20.99
2016-05-08T11:14:42.789Z,21.38
2016-05-08T11:15:43.385Z,21.38
2016-05-08T11:16:42.951Z,21.28
2016-05-08T11:17:42.798Z,21.48
2016-05-08T11:18:42.800Z,21.38
2016-05-08T11:19:42.912Z,20.9
2016-05-08T11:20:42.820Z,21.48
2016-05-08T11:21:42.823Z,21
2016-05-08T11:22:42.825Z,21
2016-05-08T11:23:42.844Z,21.1
2016-05-08T11:24:42.691Z,21.58
2016-05-08T11:25:42.850Z,20.9
2016-05-08T11:26:42.711Z,21
2016-05-08T11:27:42.949Z,21.1
2016-05-08T11:28:42.889Z,20.53
2016-05-08T11:29:42.719Z,20.43
2016-05-08T11:30:42.894Z,20.43
2016-05-08T11:31:42.740Z,20.43
2016-05-08T11:32:42.900Z,21.01
2016-05-08T11:33:42.762Z,20.72
2016-05-08T11:34:42.921Z,20.72
2016-05-08T11:35:42.924Z,20.92
2016-05-08T11:36:42.926Z,21.2
2016-05-08T11:37:42.944Z,21.2
2016-05-08T11:38:42.947Z,20.24
2016-05-08T11:39:42.965Z,20.82
2016-05-08T11:40:42.968Z,21.01
2016-05-08T11:41:42.815Z,20.72
2016-05-08T11:42:43.082Z,20.53
2016-05-08T11:43:42.992Z,20.43
2016-05-08T11:44:42.995Z,21.11
2016-05-08T11:45:42.997Z,21.3
2016-05-08T11:46:43.000Z,21.11
2016-05-08T11:47:43.002Z,21.39
2016-05-08T11:48:43.053Z,20.92
2016-05-08T11:49:43.129Z,21.39
2016-05-08T11:50:43.158Z,21.3
2016-05-08T11:51:43.203Z,21.58
2016-05-08T11:52:43.247Z,21.3
2016-05-08T11:53:43.271Z,21.19
2016-05-08T11:54:43.304Z,21.38
2016-05-08T11:55:43.337Z,21.67
2016-05-08T11:56:43.339Z,21.77
2016-05-08T11:57:43.528Z,21.86
2016-05-08T11:58:43.383Z,21.86
2016-05-08T11:59:43.391Z,22.25
2016-05-08T12:00:43.399Z,21.86
2016-05-08T12:01:43.407Z,21.96
2016-05-08T12:02:43.431Z,21.86
2016-05-08T12:03:43.437Z,22.16
2016-05-08T12:04:43.441Z,21.96
2016-05-08T12:05:43.446Z,21.96
2016-05-08T12:06:43.465Z,21.77
2016-05-08T12:07:43.470Z,21.86
2016-05-08T12:08:43.473Z,21.96
2016-05-08T12:09:43.493Z,21.96
2016-05-08T12:10:43.497Z,21.67
2016-05-08T12:11:43.500Z,22.16
2016-05-08T12:12:43.504Z,22.06
2016-05-08T12:13:43.522Z,22.54
2016-05-08T12:14:43.524Z,22.25
2016-05-08T12:15:43.528Z,22.25
2016-05-08T12:16:44.311Z,22.16
2016-05-08T12:17:44.392Z,21.96
2016-05-08T12:18:44.316Z,22.25
2016-05-08T12:19:43.398Z,22.06
2016-05-08T12:20:44.354Z,22.25
2016-05-08T12:21:43.559Z,22.74
2016-05-08T12:22:43.578Z,22.25
2016-05-08T12:23:45.189Z,21.96
2016-05-08T12:24:44.442Z,22.16
2016-05-08T12:25:43.600Z,21.96
2016-05-08T12:27:45.091Z,21.86
2016-05-08T12:28:43.703Z,22.06
2016-05-08T12:29:44.174Z,21.77
2016-05-08T12:30:43.693Z,22.25
2016-05-08T12:31:43.633Z,21.96
2016-05-08T12:32:43.776Z,21.57
2016-05-08T12:33:43.638Z,21.28
2016-05-08T12:34:43.656Z,21.28
2016-05-08T12:35:58.178Z,21.28
2016-05-08T12:36:43.663Z,21.38
2016-05-08T12:37:43.665Z,21.57
2016-05-08T12:38:43.668Z,21.68
2016-05-08T12:39:43.779Z,21.58
2016-05-08T12:40:43.532Z,19.84
2016-05-08T12:41:43.691Z,19.55
2016-05-08T12:42:43.693Z,19.74
2016-05-08T12:43:43.712Z,19.84
2016-05-08T12:44:43.715Z,20.03
2016-05-08T12:45:43.717Z,19.55
2016-05-08T12:46:43.720Z,19.46
2016-05-08T12:47:43.723Z,19.27
2016-05-08T12:48:43.741Z,19.46
2016-05-08T12:49:43.744Z,19.37
2016-05-08T12:50:43.746Z,19.46
2016-05-08T12:51:43.749Z,19.47
2016-05-08T12:52:43.768Z,19.47
2016-05-08T12:53:43.770Z,19.38
2016-05-08T12:54:43.773Z,18.7
2016-05-08T12:55:43.791Z,18.89
2016-05-08T12:56:43.638Z,18.89
2016-05-08T12:57:43.640Z,18.89
2016-05-08T12:58:43.674Z,19.07
2016-05-08T12:59:43.817Z,19.27
2016-05-08T13:00:43.820Z,19.46
2016-05-08T13:01:43.823Z,19.37
2016-05-08T13:02:43.841Z,19.66
2016-05-08T13:03:43.844Z,19.56
2016-05-08T13:04:43.846Z,19.46
2016-05-08T13:05:43.865Z,19.75
2016-05-08T13:06:43.711Z,19.66
2016-05-08T13:07:43.870Z,20.14
2016-05-08T13:08:43.873Z,20.43
2016-05-08T13:09:43.891Z,20.43
2016-05-08T13:10:43.894Z,20.03